createdAt,value
2023-05-25T00:01:29.607Z,14.40
2023-05-25T00:03:59.854Z,14.29
2023-05-25T00:06:29.792Z,14.28
2023-05-25T00:08:59.077Z,13.82
2023-05-25T00:11:28.891Z,14.17
2023-05-25T00:13:58.830Z,14.05
2023-05-25T00:16:36.752Z,14.07
2023-05-25T00:19:04.976Z,14.12
2023-05-25T00:21:37.380Z,14.13
2023-05-25T00:24:07.276Z,13.97
2023-05-25T00:26:36.975Z,14.03
2023-05-25T00:29:07.461Z,14.07
2023-05-25T00:31:37.951Z,13.97
2023-05-25T00:34:08.443Z,13.69
2023-05-25T00:36:38.902Z,13.77
2023-05-25T00:39:09.374Z,13.75
2023-05-25T00:41:44.207Z,13.87
2023-05-25T00:44:14.257Z,13.96
2023-05-25T00:46:53.454Z,13.16
2023-05-25T00:49:30.670Z,12.72
2023-05-25T00:51:57.318Z,12.55
2023-05-25T00:54:23.638Z,13.07
2023-05-25T00:56:59.378Z,13.42
2023-05-25T00:59:40.597Z,13.46
2023-05-25T01:02:11.020Z,13.16
2023-05-25T01:04:44.447Z,13.25
2023-05-25T01:07:18.330Z,13.38
2023-05-25T01:09:45.305Z,13.45
2023-05-25T01:12:14.041Z,13.41
2023-05-25T01:14:52.509Z,13.60
2023-05-25T01:17:25.753Z,13.64
2023-05-25T01:20:08.163Z,13.18
2023-05-25T01:22:53.924Z,13.73
2023-05-25T01:25:53.470Z,13.48
2023-05-25T01:28:39.605Z,13.63
2023-05-25T01:31:16.684Z,13.17
2023-05-25T01:33:49.928Z,13.55
2023-05-25T01:36:21.635Z,13.66
2023-05-25T01:38:59.199Z,13.60
2023-05-25T01:41:30.958Z,13.32
2023-05-25T01:44:01.837Z,13.61
2023-05-25T01:51:56.129Z,13.62
2023-05-25T01:54:52.555Z,13.56
2023-05-25T01:57:24.411Z,12.33
2023-05-25T02:00:01.783Z,13.53
2023-05-25T02:02:28.549Z,13.36
2023-05-25T02:04:58.811Z,13.54
2023-05-25T02:07:33.426Z,13.67
2023-05-25T02:10:04.839Z,13.26
2023-05-25T02:12:34.730Z,13.20
2023-05-25T02:15:05.638Z,13.85
2023-05-25T02:17:36.440Z,13.75
2023-05-25T02:20:07.557Z,13.74
2023-05-25T02:22:37.182Z,13.59
2023-05-25T02:25:11.918Z,13.18
2023-05-25T02:27:42.723Z,11.95
2023-05-25T02:30:13.055Z,13.48
2023-05-25T02:32:43.576Z,13.70
2023-05-25T02:35:13.349Z,13.53
2023-05-25T02:37:43.636Z,13.37
2023-05-25T02:40:14.027Z,13.65
2023-05-25T02:42:45.800Z,13.34
2023-05-25T02:45:16.296Z,12.90
2023-05-25T02:47:46.100Z,13.24
2023-05-25T02:50:16.211Z,13.63
2023-05-25T02:52:46.741Z,13.82
2023-05-25T02:55:18.096Z,13.93
2023-05-25T02:57:46.840Z,13.90
2023-05-25T03:00:20.113Z,13.80
2023-05-25T03:02:49.462Z,13.81
2023-05-25T03:05:19.704Z,13.84
2023-05-25T03:07:49.840Z,13.61
2023-05-25T03:10:20.500Z,13.73
2023-05-25T03:12:50.709Z,13.73
2023-05-25T03:15:22.398Z,13.69
2023-05-25T03:17:56.094Z,13.79
2023-05-25T03:20:23.930Z,13.82
2023-05-25T03:22:54.664Z,12.55
2023-05-25T03:25:24.305Z,13.83
2023-05-25T03:27:54.791Z,13.90
2023-05-25T03:30:25.358Z,13.95
2023-05-25T03:32:56.004Z,13.67
2023-05-25T03:35:27.418Z,13.96
2023-05-25T03:37:58.220Z,13.63
2023-05-25T03:40:28.303Z,10.29
2023-05-25T03:42:58.219Z,13.82
2023-05-25T03:45:30.256Z,14.07
2023-05-25T03:48:00.261Z,13.64
2023-05-25T03:50:30.493Z,14.08
2023-05-25T03:53:02.916Z,14.08
2023-05-25T03:55:33.499Z,13.91
2023-05-25T03:58:03.600Z,13.99
2023-05-25T04:00:33.669Z,14.10
2023-05-25T04:03:06.215Z,14.15
2023-05-25T04:05:36.274Z,13.96
2023-05-25T04:08:06.248Z,14.00
2023-05-25T04:10:46.744Z,13.76
2023-05-25T04:13:17.893Z,13.10
2023-05-25T04:15:49.484Z,13.32
2023-05-25T04:18:21.646Z,13.43
2023-05-25T04:20:52.415Z,13.36
2023-05-25T04:23:22.797Z,13.22
2023-05-25T04:25:53.516Z,12.61
2023-05-25T04:28:22.939Z,13.13
2023-05-25T04:30:56.338Z,13.03
2023-05-25T04:33:24.112Z,13.68
2023-05-25T04:35:57.973Z,13.00
2023-05-25T04:38:30.222Z,13.81
2023-05-25T04:41:01.287Z,13.51
2023-05-25T04:43:29.877Z,13.03
2023-05-25T04:46:00.715Z,13.38
2023-05-25T04:48:33.498Z,13.71
2023-05-25T04:51:03.831Z,13.65
2023-05-25T04:53:38.338Z,13.57
2023-05-25T04:56:08.692Z,13.60
2023-05-25T04:58:38.746Z,13.95
2023-05-25T05:01:11.251Z,13.96
2023-05-25T05:03:41.915Z,14.03
2023-05-25T05:06:12.576Z,13.69
2023-05-25T05:08:42.583Z,14.26
2023-05-25T05:11:12.838Z,14.38
2023-05-25T05:13:42.900Z,14.26
2023-05-25T05:16:13.269Z,14.18
2023-05-25T05:18:43.437Z,14.07
2023-05-25T05:21:13.984Z,14.09
2023-05-25T05:23:44.604Z,14.32
2023-05-25T05:26:14.889Z,14.38
2023-05-25T05:28:48.501Z,14.41
2023-05-25T05:31:19.092Z,14.25
2023-05-25T05:33:48.539Z,13.97
2023-05-25T05:36:19.046Z,13.21
2023-05-25T05:38:49.276Z,14.03
2023-05-25T05:41:19.527Z,13.22
2023-05-25T05:43:49.725Z,13.70
2023-05-25T05:46:24.289Z,13.22
2023-05-25T05:48:54.456Z,13.73
2023-05-25T05:51:24.972Z,13.84
2023-05-25T05:53:55.232Z,12.77
2023-05-25T05:56:26.380Z,13.86
2023-05-25T05:58:55.512Z,13.59
2023-05-25T06:01:26.173Z,14.00
2023-05-25T06:03:59.480Z,14.03
2023-05-25T06:06:32.322Z,14.34
2023-05-25T06:09:02.784Z,14.16
2023-05-25T06:11:30.753Z,14.24
2023-05-25T06:14:01.238Z,13.91
2023-05-25T06:16:31.788Z,13.78
2023-05-25T06:19:01.959Z,14.20
2023-05-25T06:21:36.287Z,14.36
2023-05-25T06:24:06.076Z,13.84
2023-05-25T06:26:35.561Z,14.20
2023-05-25T06:29:07.730Z,14.24
2023-05-25T06:31:38.798Z,14.03
2023-05-25T06:34:09.046Z,14.23
2023-05-25T06:36:41.629Z,14.38
2023-05-25T06:39:09.567Z,14.50
2023-05-25T06:41:40.059Z,14.34
2023-05-25T06:44:10.339Z,13.93
2023-05-25T06:46:41.395Z,14.71
2023-05-25T06:49:10.661Z,13.51
2023-05-25T06:51:40.974Z,13.75
2023-05-25T06:54:14.140Z,14.13
2023-05-25T06:56:46.757Z,14.03
2023-05-25T06:59:17.742Z,14.00
2023-05-25T07:01:48.166Z,13.65
2023-05-25T07:04:21.736Z,13.78
2023-05-25T07:06:51.276Z,14.33
2023-05-25T07:09:21.541Z,14.46
2023-05-25T07:11:50.594Z,13.98
2023-05-25T07:14:23.662Z,13.76
2023-05-25T07:16:53.895Z,13.45
2023-05-25T07:19:24.705Z,13.92
2023-05-25T07:21:58.598Z,14.67
2023-05-25T07:24:28.752Z,14.34
2023-05-25T07:26:59.455Z,14.57
2023-05-25T07:29:29.856Z,14.74
2023-05-25T07:32:00.613Z,14.38
2023-05-25T07:34:31.228Z,14.33
2023-05-25T07:37:01.497Z,13.63
2023-05-25T07:39:35.617Z,14.47
2023-05-25T07:42:06.029Z,14.73
2023-05-25T07:44:35.921Z,14.33
2023-05-25T07:47:06.375Z,14.28
2023-05-25T07:49:36.369Z,14.68
2023-05-25T07:52:07.292Z,13.67
2023-05-25T07:54:39.487Z,13.87
2023-05-25T07:57:15.582Z,14.19
2023-05-25T07:59:46.965Z,14.39
2023-05-25T08:02:17.685Z,14.15
2023-05-25T08:04:52.205Z,14.61
2023-05-25T08:07:24.213Z,14.94
2023-05-25T08:09:52.617Z,14.84
2023-05-25T08:12:38.602Z,14.84
2023-05-25T08:15:09.221Z,14.88
2023-05-25T08:17:35.534Z,15.10
2023-05-25T08:20:02.017Z,15.20
2023-05-25T08:22:34.499Z,14.20
2023-05-25T08:25:04.582Z,14.14
2023-05-25T08:27:36.074Z,14.74
2023-05-25T08:30:09.014Z,14.55
2023-05-25T08:32:39.181Z,14.25
2023-05-25T08:35:09.623Z,14.80
2023-05-25T08:37:40.237Z,15.49
2023-05-25T08:40:15.557Z,15.34
2023-05-25T08:42:45.708Z,14.63
2023-05-25T08:45:22.573Z,15.41
2023-05-25T08:48:01.096Z,14.98
2023-05-25T08:50:27.696Z,15.21
2023-05-25T08:52:55.142Z,15.88
2023-05-25T08:55:35.264Z,15.55
2023-05-25T08:58:32.352Z,15.97
2023-05-25T09:01:07.201Z,16.31
2023-05-25T09:03:38.618Z,15.82
2023-05-25T09:06:06.331Z,16.35
2023-05-25T09:08:32.627Z,15.51
2023-05-25T09:11:05.092Z,15.77
2023-05-25T09:13:36.748Z,16.09
2023-05-25T09:16:03.218Z,16.39
2023-05-25T09:18:36.704Z,15.55
2023-05-25T09:21:07.650Z,15.60
2023-05-25T09:23:34.818Z,16.11
2023-05-25T09:26:01.600Z,16.84
2023-05-25T09:28:32.324Z,17.39
2023-05-25T09:31:04.647Z,16.30
2023-05-25T09:33:30.964Z,16.07
2023-05-25T09:35:57.532Z,16.54
2023-05-25T09:38:30.099Z,15.41
2023-05-25T09:40:56.365Z,15.90
2023-05-25T09:43:36.315Z,16.63
2023-05-25T09:46:11.663Z,16.72
2023-05-25T09:48:42.542Z,16.69
2023-05-25T09:51:08.699Z,17.25
2023-05-25T09:53:35.024Z,16.52
2023-05-25T09:56:06.279Z,16.77
2023-05-25T09:58:32.485Z,17.02
2023-05-25T10:00:58.858Z,16.89
2023-05-25T10:03:25.391Z,17.22
2023-05-25T10:05:53.682Z,15.75
2023-05-25T10:08:23.652Z,16.70
2023-05-25T10:10:52.370Z,16.77
2023-05-25T10:13:26.610Z,17.04
2023-05-25T10:15:57.425Z,17.05
2023-05-25T10:18:28.474Z,17.54
2023-05-25T10:21:02.229Z,17.33
2023-05-25T10:23:41.201Z,17.65
2023-05-25T10:26:09.234Z,16.58
2023-05-25T10:28:37.022Z,15.82
2023-05-25T10:31:08.829Z,17.33
2023-05-25T10:33:35.374Z,17.59
2023-05-25T10:36:10.693Z,17.26
2023-05-25T10:38:39.355Z,18.29
2023-05-25T10:41:08.786Z,18.18
2023-05-25T10:43:38.604Z,17.13
2023-05-25T10:46:09.211Z,17.89
2023-05-25T10:48:48.088Z,18.71
2023-05-25T10:51:14.654Z,17.09
2023-05-25T10:53:46.753Z,18.08
2023-05-25T10:56:19.244Z,17.35
2023-05-25T10:58:52.303Z,18.38
2023-05-25T11:01:20.871Z,17.27
2023-05-25T11:03:55.385Z,17.71
2023-05-25T11:06:45.082Z,18.41
2023-05-25T11:09:33.116Z,17.76
2023-05-25T11:12:04.361Z,18.62
2023-05-25T11:14:36.456Z,18.91
2023-05-25T11:17:07.384Z,18.54
2023-05-25T11:19:51.114Z,18.06
2023-05-25T11:22:32.653Z,18.39
2023-05-25T11:25:37.338Z,19.42
2023-05-25T11:28:12.927Z,18.61
2023-05-25T11:30:44.847Z,18.66
2023-05-25T11:33:21.033Z,18.90
2023-05-25T11:35:56.873Z,19.97
2023-05-25T11:38:27.911Z,19.34
2023-05-25T11:41:03.183Z,19.36
2023-05-25T11:43:39.677Z,19.47
2023-05-25T11:46:10.209Z,19.87
2023-05-25T11:48:44.809Z,20.16
2023-05-25T11:51:20.506Z,20.99
2023-05-25T11:53:47.054Z,20.90
2023-05-25T11:56:27.126Z,20.59
2023-05-25T11:59:07.187Z,19.77
2023-05-25T12:01:33.324Z,19.37
2023-05-25T12:04:08.495Z,19.75
2023-05-25T12:06:43.449Z,20.46
2023-05-25T12:09:19.031Z,19.95
2023-05-25T12:11:45.405Z,18.30
2023-05-25T12:14:11.592Z,20.14
2023-05-25T12:16:42.962Z,20.84
2023-05-25T12:19:10.950Z,20.99
2023-05-25T12:21:39.109Z,19.72
2023-05-25T12:24:05.621Z,20.30
2023-05-25T12:26:46.730Z,19.02
2023-05-25T12:29:12.908Z,20.77
2023-05-25T12:31:40.225Z,20.70
2023-05-25T12:34:18.606Z,20.66
2023-05-25T12:36:51.545Z,21.19
2023-05-25T12:39:24.526Z,21.26
2023-05-25T12:42:02.123Z,20.68
2023-05-25T12:44:33.681Z,20.50
2023-05-25T12:47:27.165Z,21.51
2023-05-25T12:50:13.210Z,21.18
2023-05-25T12:52:47.315Z,19.87
2023-05-25T12:55:26.342Z,21.61
2023-05-25T12:58:02.165Z,20.25
2023-05-25T13:00:40.253Z,20.28
2023-05-25T13:03:11.342Z,20.55
2023-05-25T13:05:45.879Z,21.51
2023-05-25T13:08:18.831Z,20.41
2023-05-25T13:10:50.818Z,19.64
2023-05-25T13:13:22.220Z,21.29
2023-05-25T13:15:57.822Z,20.10
2023-05-25T13:18:28.615Z,21.28
2023-05-25T13:21:00.464Z,20.73
2023-05-25T13:23:32.345Z,21.03
2023-05-25T13:26:03.644Z,19.82
2023-05-25T13:28:34.484Z,21.09
2023-05-25T13:31:06.222Z,21.35
2023-05-25T13:33:39.349Z,21.88
2023-05-25T13:36:09.532Z,21.77
2023-05-25T13:38:40.477Z,20.85
2023-05-25T13:41:14.115Z,20.63
2023-05-25T13:43:44.490Z,21.50
2023-05-25T13:46:25.896Z,22.15
2023-05-25T13:49:04.321Z,21.47
2023-05-25T13:51:30.703Z,20.98
2023-05-25T13:53:56.808Z,21.41
2023-05-25T13:56:23.329Z,21.44
2023-05-25T13:58:58.264Z,20.59
2023-05-25T14:01:28.697Z,21.63
2023-05-25T14:03:59.563Z,21.90
2023-05-25T14:06:34.014Z,21.07
2023-05-25T14:09:02.917Z,21.61
2023-05-25T14:11:33.556Z,21.54
2023-05-25T14:14:11.427Z,22.06
2023-05-25T14:16:43.033Z,22.11
2023-05-25T14:19:09.379Z,21.29
2023-05-25T14:21:36.775Z,21.45
2023-05-25T14:24:11.399Z,20.45
2023-05-25T14:26:43.004Z,20.90
2023-05-25T14:29:12.949Z,21.73
2023-05-25T14:31:45.896Z,21.62
2023-05-25T14:34:16.251Z,21.71
2023-05-25T14:36:46.749Z,21.48
2023-05-25T14:39:17.517Z,21.62
2023-05-25T14:41:47.497Z,20.97
2023-05-25T14:44:17.598Z,21.86
2023-05-25T14:46:48.108Z,20.69
2023-05-25T14:49:24.143Z,21.55
2023-05-25T14:51:52.900Z,20.55
2023-05-25T14:54:22.882Z,21.85
2023-05-25T14:56:53.207Z,22.05
2023-05-25T14:59:24.718Z,21.80
2023-05-25T15:01:55.142Z,21.41
2023-05-25T15:04:27.680Z,22.19
2023-05-25T15:07:02.787Z,22.26
2023-05-25T15:09:33.246Z,21.59
2023-05-25T15:12:05.858Z,21.27
2023-05-25T15:14:39.326Z,21.49
2023-05-25T15:17:10.091Z,21.60
2023-05-25T15:19:37.883Z,21.72
2023-05-25T15:22:09.033Z,21.64
2023-05-25T15:24:40.524Z,21.37
2023-05-25T15:27:10.817Z,22.16
2023-05-25T15:29:40.840Z,21.90
2023-05-25T15:32:13.174Z,20.96
2023-05-25T15:34:41.528Z,20.47
2023-05-25T15:37:13.162Z,21.56
2023-05-25T15:39:41.869Z,21.89
2023-05-25T15:42:16.062Z,20.03
2023-05-25T15:44:46.035Z,20.21
2023-05-25T15:47:17.303Z,20.96
2023-05-25T15:49:48.282Z,20.91
2023-05-25T15:52:19.322Z,18.46
2023-05-25T15:54:49.608Z,20.40
2023-05-25T15:57:19.922Z,20.68
2023-05-25T15:59:53.536Z,21.12
2023-05-25T16:02:23.177Z,20.89
2023-05-25T16:04:53.781Z,21.02
2023-05-25T16:07:23.967Z,21.16
2023-05-25T16:09:54.697Z,20.36
2023-05-25T16:12:27.693Z,20.35
2023-05-25T16:14:54.705Z,19.90
2023-05-25T16:17:29.163Z,19.70
2023-05-25T16:19:58.081Z,20.87
2023-05-25T16:22:27.929Z,20.18
2023-05-25T16:24:58.640Z,19.87
2023-05-25T16:27:28.599Z,20.06
2023-05-25T16:29:58.505Z,20.39
2023-05-25T16:32:29.104Z,20.79
2023-05-25T16:35:03.129Z,20.80
2023-05-25T16:37:33.132Z,20.57
2023-05-25T16:40:04.677Z,20.34
2023-05-25T16:42:35.863Z,19.57
2023-05-25T16:45:07.129Z,19.66
2023-05-25T16:47:37.497Z,19.55
2023-05-25T16:50:07.653Z,19.44
2023-05-25T16:52:38.617Z,19.17
2023-05-25T16:55:09.375Z,19.57
2023-05-25T16:57:39.159Z,19.57
2023-05-25T17:00:11.398Z,16.16
2023-05-25T17:02:41.442Z,19.42
2023-05-25T17:05:11.211Z,19.21
2023-05-25T17:07:41.170Z,19.18
2023-05-25T17:10:15.007Z,19.20
2023-05-25T17:12:45.244Z,18.22
2023-05-25T17:15:15.624Z,18.37
2023-05-25T17:17:45.779Z,18.34
2023-05-25T17:20:16.404Z,18.91
2023-05-25T17:22:46.082Z,19.21
2023-05-25T17:25:16.498Z,19.05
2023-05-25T17:27:49.854Z,18.80
2023-05-25T17:30:20.391Z,18.60
2023-05-25T17:32:49.765Z,18.61
2023-05-25T17:35:20.116Z,18.84
2023-05-25T17:37:50.296Z,19.06
2023-05-25T17:40:21.023Z,18.69
2023-05-25T17:42:50.672Z,18.50
2023-05-25T17:45:24.900Z,18.54
2023-05-25T17:47:55.629Z,18.68
2023-05-25T17:50:25.053Z,17.96
2023-05-25T17:52:55.647Z,18.47
2023-05-25T17:55:26.326Z,18.28
2023-05-25T17:57:55.612Z,18.55
2023-05-25T18:00:26.573Z,18.30
2023-05-25T18:03:00.550Z,15.54
2023-05-25T18:05:30.506Z,18.31
2023-05-25T18:08:00.624Z,18.07
2023-05-25T18:10:30.546Z,18.72
2023-05-25T18:13:01.180Z,18.11
2023-05-25T18:15:31.099Z,18.44
2023-05-25T18:18:03.016Z,17.94
2023-05-25T18:20:36.508Z,18.02
2023-05-25T18:23:07.599Z,16.99
2023-05-25T18:25:36.734Z,18.18
2023-05-25T18:28:08.897Z,18.11
2023-05-25T18:30:40.468Z,17.67
2023-05-25T18:33:09.938Z,18.00
2023-05-25T18:35:39.693Z,18.04
2023-05-25T18:38:12.471Z,18.06
2023-05-25T18:40:42.789Z,18.05
2023-05-25T18:43:12.833Z,17.81
2023-05-25T18:45:43.238Z,17.17
2023-05-25T18:48:15.092Z,18.28
2023-05-25T18:50:44.229Z,17.80
2023-05-25T18:53:14.371Z,17.86
2023-05-25T18:55:48.909Z,17.85
2023-05-25T18:58:19.016Z,17.90
2023-05-25T19:00:48.988Z,17.95
2023-05-25T19:03:19.346Z,16.73
2023-05-25T19:05:49.603Z,17.80
2023-05-25T19:08:19.640Z,18.11
2023-05-25T19:10:49.790Z,17.93
2023-05-25T19:13:22.371Z,18.11
2023-05-25T19:15:52.441Z,18.04
2023-05-25T19:18:23.304Z,18.11
2023-05-25T19:20:55.659Z,18.11
2023-05-25T19:23:26.288Z,17.40
2023-05-25T19:25:56.459Z,17.69
2023-05-25T19:28:26.814Z,17.65
2023-05-25T19:30:57.962Z,17.84
2023-05-25T19:33:28.317Z,17.85
2023-05-25T19:35:58.241Z,17.91
2023-05-25T19:38:34.166Z,17.66
2023-05-25T19:41:06.895Z,17.79
2023-05-25T19:43:33.115Z,17.85
2023-05-25T19:45:59.927Z,17.57
2023-05-25T19:48:34.546Z,17.69
2023-05-25T19:51:05.748Z,17.71
2023-05-25T19:53:35.227Z,17.37
2023-05-25T19:56:06.258Z,17.47
2023-05-25T19:58:36.987Z,17.24
2023-05-25T20:01:07.790Z,16.78
2023-05-25T20:03:38.031Z,17.59
2023-05-25T20:06:11.060Z,17.59
2023-05-25T20:08:41.230Z,17.61
2023-05-25T20:11:11.207Z,17.42
2023-05-25T20:13:41.817Z,17.29
2023-05-25T20:16:12.293Z,17.31
2023-05-25T20:18:42.990Z,17.27
2023-05-25T20:21:12.504Z,17.41
2023-05-25T20:23:46.762Z,16.97
2023-05-25T20:26:17.381Z,17.20
2023-05-25T20:28:48.397Z,16.73
2023-05-25T20:31:24.217Z,16.89
2023-05-25T20:33:54.394Z,12.73
2023-05-25T20:36:25.349Z,16.60
2023-05-25T20:38:55.750Z,15.94
2023-05-25T20:41:26.398Z,16.41
2023-05-25T20:43:56.261Z,17.37
2023-05-25T20:46:26.670Z,17.35
2023-05-25T20:49:02.832Z,17.21
2023-05-25T20:51:32.104Z,16.74
2023-05-25T20:54:02.320Z,17.31
2023-05-25T20:56:32.447Z,17.30
2023-05-25T20:59:02.742Z,17.31
2023-05-25T21:01:33.033Z,17.29
2023-05-25T21:04:03.333Z,16.88
2023-05-25T21:06:37.731Z,17.17
2023-05-25T21:09:08.234Z,17.15
2023-05-25T21:11:38.081Z,17.22
2023-05-25T21:14:10.710Z,17.19
2023-05-25T21:16:43.440Z,17.11
2023-05-25T21:19:12.620Z,16.91
2023-05-25T21:21:42.847Z,17.01
2023-05-25T21:24:13.476Z,16.93
2023-05-25T21:26:43.612Z,16.87
2023-05-25T21:29:14.223Z,16.98
2023-05-25T21:31:46.972Z,16.94
2023-05-25T21:34:17.575Z,16.94
2023-05-25T21:36:48.344Z,16.91
2023-05-25T21:39:17.993Z,16.88
2023-05-25T21:41:49.321Z,16.78
2023-05-25T21:44:19.903Z,16.73
2023-05-25T21:46:50.222Z,16.66
2023-05-25T21:49:24.609Z,16.25
2023-05-25T21:51:55.676Z,16.62
2023-05-25T21:54:26.433Z,16.70
2023-05-25T21:56:56.178Z,16.72
2023-05-25T21:59:27.275Z,16.76
2023-05-25T22:01:57.140Z,16.83
2023-05-25T22:04:28.644Z,16.27
2023-05-25T22:07:03.451Z,16.60
2023-05-25T22:09:33.699Z,16.63
2023-05-25T22:12:04.171Z,16.73
2023-05-25T22:14:34.149Z,16.58
2023-05-25T22:17:04.785Z,16.22
2023-05-25T22:19:35.253Z,16.18
2023-05-25T22:22:05.369Z,16.54
2023-05-25T22:24:38.944Z,16.41
2023-05-25T22:27:09.147Z,16.00
2023-05-25T22:29:39.700Z,16.35
2023-05-25T22:32:09.379Z,16.44
2023-05-25T22:34:39.818Z,16.34
2023-05-25T22:37:10.906Z,16.10
2023-05-25T22:39:40.528Z,16.20
2023-05-25T22:42:10.827Z,16.16
2023-05-25T22:44:41.187Z,16.21
2023-05-25T22:47:11.095Z,16.07
2023-05-25T22:49:44.187Z,16.16
2023-05-25T22:52:15.752Z,16.16
2023-05-25T22:54:46.211Z,16.10
2023-05-25T22:57:16.276Z,16.04
2023-05-25T22:59:49.388Z,14.64
2023-05-25T23:02:20.786Z,16.09
2023-05-25T23:04:52.020Z,16.09
2023-05-25T23:07:23.315Z,16.10
2023-05-25T23:09:54.452Z,15.99
2023-05-25T23:12:25.471Z,15.82
2023-05-25T23:14:59.174Z,15.93
2023-05-25T23:17:31.953Z,15.74
2023-05-25T23:20:06.731Z,15.88
2023-05-25T23:22:33.656Z,15.79
2023-05-25T23:25:04.791Z,15.82
2023-05-25T23:27:35.202Z,15.76
2023-05-25T23:30:06.114Z,15.81
2023-05-25T23:32:36.057Z,15.81
2023-05-25T23:35:08.388Z,15.92
2023-05-25T23:37:38.447Z,15.93
2023-05-25T23:40:09.083Z,15.79
2023-05-25T23:42:43.178Z,15.78
2023-05-25T23:45:12.860Z,15.80
2023-05-25T23:47:41.815Z,15.91
2023-05-25T23:50:12.643Z,15.84
2023-05-25T23:52:43.353Z,15.66
2023-05-25T23:55:13.175Z,15.77
2023-05-25T23:57:42.802Z,15.68
